Time;durP1;ratioP1;P1;durP2;ratioP2;P2;SDS_P1;SDS_P2;PMS_P1;PMS_P2;Temp;Humidity;BMP_temperature;BMP_pressure;BME280_temperature;BME280_humidity;BME280_pressure;Samples;Min_cycle;Max_cycle;Signal;HPM_P1;HPM_P2
2022/04/27 00:01:23;;;;;;;0.05;0.05;;;;;;;;;;5070801;28;20020;-75
2022/04/27 00:03:50;;;;;;;5.43;1.38;;;;;;;;;;5072098;28;20028;-75
2022/04/27 00:06:16;;;;;;;0.70;0.70;;;;;;;;;;5072139;28;20537;-75
2022/04/27 00:08:42;;;;;;;0.00;0.00;;;;;;;;;;5070816;28;20020;-75
2022/04/27 00:11:09;;;;;;;0.52;0.52;;;;;;;;;;5072170;28;20448;-75
2022/04/27 00:13:35;;;;;;;0.35;0.35;;;;;;;;;;5072289;28;20032;-75
2022/04/27 00:16:02;;;;;;;3.50;3.30;;;;;;;;;;5072421;28;20025;-76
2022/04/27 00:18:28;;;;;;;0.00;0.00;;;;;;;;;;5072293;28;20028;-75
2022/04/27 00:20:54;;;;;;;0.20;0.15;;;;;;;;;;5072338;28;20058;-75
2022/04/27 00:23:24;;;;;;;0.10;0.10;;;;;;;;;;5072142;28;20112;-75
2022/04/27 00:25:50;;;;;;;0.00;0.00;;;;;;;;;;5070995;28;20049;-75
2022/04/27 00:28:17;;;;;;;5.63;5.22;;;;;;;;;;5071679;28;20070;-75
2022/04/27 00:30:43;;;;;;;3.53;3.40;;;;;;;;;;5061486;28;20028;-75
2022/04/27 00:33:11;;;;;;;0.50;0.43;;;;;;;;;;5070488;28;20021;-75
2022/04/27 00:35:38;;;;;;;0.00;0.00;;;;;;;;;;5070451;28;20162;-75
2022/04/27 00:38:04;;;;;;;0.80;0.73;;;;;;;;;;5068101;28;20023;-75
2022/04/27 00:40:30;;;;;;;0.00;0.00;;;;;;;;;;5067774;28;20051;-75
2022/04/27 00:42:57;;;;;;;3.00;2.78;;;;;;;;;;5069760;28;20513;-76
2022/04/27 00:45:23;;;;;;;3.55;2.30;;;;;;;;;;5072184;28;20037;-75
2022/04/27 00:47:49;;;;;;;0.43;0.43;;;;;;;;;;5074424;28;20017;-75
2022/04/27 00:50:16;;;;;;;1.23;1.23;;;;;;;;;;5073959;28;20021;-75
2022/04/27 00:52:43;;;;;;;0.00;0.00;;;;;;;;;;5071448;28;20047;-75
2022/04/27 00:55:10;;;;;;;17.77;16.13;;;;;;;;;;5075271;28;20454;-75
2022/04/27 00:57:46;;;;;;;3.83;1.88;;;;;;;;;;5073850;28;20056;-75
2022/04/27 01:00:13;;;;;;;0.00;0.00;;;;;;;;;;5075171;28;20017;-74
2022/04/27 01:02:40;;;;;;;0.30;0.00;;;;;;;;;;5074681;28;20490;-74
2022/04/27 01:05:11;;;;;;;4.32;4.07;;;;;;;;;;5074369;28;20484;-74
2022/04/27 01:07:41;;;;;;;6.07;5.82;;;;;;;;;;5067073;28;20116;-74
2022/04/27 01:10:08;;;;;;;0.00;0.00;;;;;;;;;;5070773;28;20029;-74
2022/04/27 01:12:36;;;;;;;0.10;0.10;;;;;;;;;;5070342;28;20021;-75
2022/04/27 01:15:03;;;;;;;0.75;0.43;;;;;;;;;;5071912;28;20070;-74
2022/04/27 01:17:29;;;;;;;2.17;0.63;;;;;;;;;;5071843;28;20444;-75
2022/04/27 01:19:56;;;;;;;0.00;0.00;;;;;;;;;;5066091;28;20029;-77
2022/04/27 01:22:23;;;;;;;2.10;1.30;;;;;;;;;;5055408;28;20032;-76
2022/04/27 01:24:50;;;;;;;8.00;3.72;;;;;;;;;;5069038;28;20040;-78
2022/04/27 01:27:16;;;;;;;1.60;1.17;;;;;;;;;;5060575;28;20017;-77
2022/04/27 01:29:42;;;;;;;0.95;0.95;;;;;;;;;;5060532;28;20504;-77
2022/04/27 01:32:10;;;;;;;0.00;0.00;;;;;;;;;;5053915;28;20028;-77
2022/04/27 01:34:36;;;;;;;0.38;0.38;;;;;;;;;;5065147;28;20033;-79
2022/04/27 01:39:48;;;;;;;0.85;0.57;;;;;;;;;;5067897;28;20044;-78
2022/04/27 01:42:16;;;;;;;0.70;0.52;;;;;;;;;;5068748;28;20094;-78
2022/04/27 01:44:45;;;;;;;0.00;0.00;;;;;;;;;;5068723;28;20035;-78
2022/04/27 01:47:11;;;;;;;0.30;0.30;;;;;;;;;;5069338;28;20074;-78
2022/04/27 01:49:38;;;;;;;0.00;0.00;;;;;;;;;;5071130;28;20024;-78
2022/04/27 01:54:49;;;;;;;1.45;1.35;;;;;;;;;;5067974;28;20407;-76
2022/04/27 01:57:16;;;;;;;0.00;0.00;;;;;;;;;;5063702;28;20036;-76
2022/04/27 01:59:42;;;;;;;0.00;0.00;;;;;;;;;;5073990;28;20025;-75
2022/04/27 02:02:10;;;;;;;1.10;0.30;;;;;;;;;;5072179;28;20574;-76
2022/04/27 02:04:36;;;;;;;0.00;0.00;;;;;;;;;;5074063;28;20021;-77
2022/04/27 02:07:02;;;;;;;0.00;0.00;;;;;;;;;;5073251;28;20415;-77
2022/04/27 02:09:29;;;;;;;0.00;0.00;;;;;;;;;;5062842;28;20033;-76
2022/04/27 02:11:55;;;;;;;0.00;0.00;;;;;;;;;;5064384;28;20025;-76
2022/04/27 02:14:22;;;;;;;0.15;0.15;;;;;;;;;;5068687;28;20029;-76
2022/04/27 02:16:48;;;;;;;0.00;0.00;;;;;;;;;;5068785;28;20016;-76
2022/04/27 02:19:14;;;;;;;0.80;0.22;;;;;;;;;;5067389;28;20021;-79
2022/04/27 02:21:41;;;;;;;1.30;0.82;;;;;;;;;;5062565;28;20034;-78
2022/04/27 02:24:07;;;;;;;0.00;0.00;;;;;;;;;;5065882;28;20483;-79
2022/04/27 02:26:33;;;;;;;0.00;0.00;;;;;;;;;;5064270;28;20044;-78
2022/04/27 02:29:00;;;;;;;1.85;0.30;;;;;;;;;;5062997;28;20024;-79
2022/04/27 02:31:27;;;;;;;2.63;0.65;;;;;;;;;;5062859;28;20025;-79
2022/04/27 02:33:53;;;;;;;0.10;0.10;;;;;;;;;;5064517;28;20444;-78
2022/04/27 02:36:21;;;;;;;1.73;1.70;;;;;;;;;;5070752;28;20025;-79
2022/04/27 02:38:48;;;;;;;0.25;0.25;;;;;;;;;;5069218;28;20017;-79
2022/04/27 02:41:14;;;;;;;2.00;0.57;;;;;;;;;;5072032;28;20096;-79
2022/04/27 02:43:40;;;;;;;0.00;0.00;;;;;;;;;;5070572;28;20066;-79
2022/04/27 02:46:06;;;;;;;0.17;0.17;;;;;;;;;;5074775;28;20119;-79
2022/04/27 02:48:33;;;;;;;1.55;1.45;;;;;;;;;;5068404;28;20032;-79
2022/04/27 02:53:44;;;;;;;1.75;1.17;;;;;;;;;;5082591;28;20052;-78
2022/04/27 02:56:19;;;;;;;0.00;0.00;;;;;;;;;;5090877;28;20040;-78
2022/04/27 02:58:52;;;;;;;0.00;0.00;;;;;;;;;;5080366;28;20101;-80
2022/04/27 03:01:18;;;;;;;0.00;0.00;;;;;;;;;;5065433;28;20036;-81
2022/04/27 03:03:45;;;;;;;0.40;0.40;;;;;;;;;;5058106;28;20036;-79
2022/04/27 03:06:11;;;;;;;1.88;1.77;;;;;;;;;;5062981;28;20059;-77
2022/04/27 03:08:37;;;;;;;0.13;0.13;;;;;;;;;;5061751;28;20024;-77
2022/04/27 03:11:04;;;;;;;0.10;0.10;;;;;;;;;;5063715;28;20082;-80
2022/04/27 03:13:30;;;;;;;0.32;0.32;;;;;;;;;;5066656;28;20035;-79
2022/04/27 03:15:56;;;;;;;0.70;0.43;;;;;;;;;;5064706;28;20054;-76
2022/04/27 03:18:23;;;;;;;0.00;0.00;;;;;;;;;;5060709;28;20145;-77
2022/04/27 03:20:49;;;;;;;2.92;2.10;;;;;;;;;;5070211;28;20083;-76
2022/04/27 03:23:16;;;;;;;0.10;0.10;;;;;;;;;;5066330;28;20108;-76
2022/04/27 03:25:43;;;;;;;0.30;0.30;;;;;;;;;;5064900;28;20104;-77
2022/04/27 03:28:10;;;;;;;0.08;0.08;;;;;;;;;;5063417;28;20535;-76
2022/04/27 03:30:36;;;;;;;1.13;0.98;;;;;;;;;;5065962;28;20024;-76
2022/04/27 03:33:02;;;;;;;0.00;0.00;;;;;;;;;;5064785;28;20051;-76
2022/04/27 03:35:29;;;;;;;0.00;0.00;;;;;;;;;;5066896;28;21790;-75
2022/04/27 03:37:57;;;;;;;0.15;0.15;;;;;;;;;;5061381;28;20021;-75
2022/04/27 03:40:24;;;;;;;1.02;1.02;;;;;;;;;;5062289;28;20130;-74
2022/04/27 03:42:50;;;;;;;0.20;0.20;;;;;;;;;;5058486;28;20029;-75
2022/04/27 03:45:19;;;;;;;1.25;1.08;;;;;;;;;;5072676;28;20562;-76
2022/04/27 03:47:46;;;;;;;12.90;3.28;;;;;;;;;;5067687;28;20020;-74
2022/04/27 03:50:13;;;;;;;2.30;2.10;;;;;;;;;;5062767;28;20021;-74
2022/04/27 03:52:39;;;;;;;0.00;0.00;;;;;;;;;;5065597;28;20529;-73
2022/04/27 03:55:06;;;;;;;0.00;0.00;;;;;;;;;;5065102;28;20106;-74
2022/04/27 03:57:32;;;;;;;0.10;0.10;;;;;;;;;;5062447;28;20044;-77
2022/04/27 03:59:59;;;;;;;0.00;0.00;;;;;;;;;;5064150;28;20056;-76
2022/04/27 04:02:28;;;;;;;0.20;0.20;;;;;;;;;;5062150;28;20026;-74
2022/04/27 04:04:55;;;;;;;0.00;0.00;;;;;;;;;;5060156;28;20468;-76
2022/04/27 04:07:21;;;;;;;0.00;0.00;;;;;;;;;;5062936;28;20028;-76
2022/04/27 04:09:47;;;;;;;0.00;0.00;;;;;;;;;;5065430;28;20391;-76
2022/04/27 04:12:14;;;;;;;0.52;0.52;;;;;;;;;;5065003;28;20506;-76
2022/04/27 04:14:40;;;;;;;0.00;0.00;;;;;;;;;;5062248;28;20025;-77
2022/04/27 04:17:07;;;;;;;0.00;0.00;;;;;;;;;;5065674;28;20040;-78
2022/04/27 04:19:33;;;;;;;0.00;0.00;;;;;;;;;;5070811;28;20033;-75
2022/04/27 04:22:00;;;;;;;0.03;0.03;;;;;;;;;;5064332;28;20032;-76
2022/04/27 04:24:26;;;;;;;1.48;0.88;;;;;;;;;;5065849;28;20029;-74
2022/04/27 04:29:38;;;;;;;0.00;0.00;;;;;;;;;;5062307;28;20048;-75
2022/04/27 04:32:05;;;;;;;0.00;0.00;;;;;;;;;;5068493;28;20549;-75
2022/04/27 04:34:31;;;;;;;0.90;0.85;;;;;;;;;;5064979;28;20024;-73
2022/04/27 04:36:57;;;;;;;0.00;0.00;;;;;;;;;;5066307;28;20471;-74
2022/04/27 04:39:24;;;;;;;1.90;1.35;;;;;;;;;;5062750;28;20043;-75
2022/04/27 04:41:50;;;;;;;0.00;0.00;;;;;;;;;;5060598;28;20039;-76
2022/04/27 04:44:16;;;;;;;1.10;0.70;;;;;;;;;;5065771;28;20029;-74
2022/04/27 04:46:43;;;;;;;0.00;0.00;;;;;;;;;;5068308;28;20015;-74
2022/04/27 04:49:09;;;;;;;0.00;0.00;;;;;;;;;;5070248;28;20017;-74
2022/04/27 04:51:35;;;;;;;1.65;0.90;;;;;;;;;;5068589;28;20048;-74
2022/04/27 04:54:02;;;;;;;5.78;1.95;;;;;;;;;;5069211;28;20017;-74
2022/04/27 04:56:28;;;;;;;0.60;0.38;;;;;;;;;;5063769;28;20032;-75
2022/04/27 04:58:55;;;;;;;1.88;1.30;;;;;;;;;;5065995;28;20033;-74
2022/04/27 05:01:21;;;;;;;0.10;0.10;;;;;;;;;;5064877;28;20024;-75
2022/04/27 05:03:47;;;;;;;0.00;0.00;;;;;;;;;;5068466;28;20379;-75
2022/04/27 05:06:14;;;;;;;1.50;0.90;;;;;;;;;;5060961;28;20759;-76
2022/04/27 05:08:41;;;;;;;1.08;1.02;;;;;;;;;;5061422;28;20060;-75
2022/04/27 05:11:10;;;;;;;1.65;1.45;;;;;;;;;;5060968;28;20025;-76
2022/04/27 05:13:38;;;;;;;0.10;0.10;;;;;;;;;;5066688;28;20027;-75
2022/04/27 05:16:05;;;;;;;0.00;0.00;;;;;;;;;;5068934;28;20059;-76
2022/04/27 05:18:31;;;;;;;0.05;0.05;;;;;;;;;;5063519;28;20040;-76
2022/04/27 05:20:58;;;;;;;0.00;0.00;;;;;;;;;;5064961;28;20029;-74
2022/04/27 05:23:24;;;;;;;0.00;0.00;;;;;;;;;;5069106;28;20042;-74
2022/04/27 05:25:50;;;;;;;0.00;0.00;;;;;;;;;;5064862;28;20017;-75
2022/04/27 05:28:17;;;;;;;0.00;0.00;;;;;;;;;;5062415;28;20024;-76
2022/04/27 05:33:28;;;;;;;0.03;0.03;;;;;;;;;;5064579;28;20090;-75
2022/04/27 05:35:58;;;;;;;0.75;0.75;;;;;;;;;;5064985;28;20537;-75
2022/04/27 05:38:24;;;;;;;0.00;0.00;;;;;;;;;;5061820;28;20502;-73
2022/04/27 05:43:50;;;;;;;1.20;1.00;;;;;;;;;;5060104;28;20028;-75
2022/04/27 05:46:19;;;;;;;1.70;1.30;;;;;;;;;;5059300;28;20024;-74
2022/04/27 05:48:46;;;;;;;3.40;0.95;;;;;;;;;;5060330;28;20036;-75
2022/04/27 05:51:15;;;;;;;0.20;0.20;;;;;;;;;;5068326;28;20024;-77
2022/04/27 05:53:41;;;;;;;1.08;0.88;;;;;;;;;;5066335;28;20024;-74
2022/04/27 05:56:08;;;;;;;0.52;0.52;;;;;;;;;;5061987;28;20029;-74
2022/04/27 05:58:34;;;;;;;0.52;0.47;;;;;;;;;;5062758;28;20023;-75
2022/04/27 06:01:01;;;;;;;0.00;0.00;;;;;;;;;;5061025;28;20103;-75
2022/04/27 06:03:27;;;;;;;0.20;0.05;;;;;;;;;;5054661;28;20041;-75
2022/04/27 06:05:53;;;;;;;0.40;0.40;;;;;;;;;;5058266;28;20066;-75
2022/04/27 06:08:20;;;;;;;0.43;0.10;;;;;;;;;;5061646;28;20067;-75
2022/04/27 06:10:46;;;;;;;0.00;0.00;;;;;;;;;;5073673;28;20025;-74
2022/04/27 06:13:13;;;;;;;2.05;1.40;;;;;;;;;;5059725;28;20029;-73
2022/04/27 06:15:40;;;;;;;0.50;0.10;;;;;;;;;;5068639;28;20025;-74
2022/04/27 06:18:06;;;;;;;1.55;0.80;;;;;;;;;;5062950;28;20031;-73
2022/04/27 06:20:33;;;;;;;0.00;0.00;;;;;;;;;;5065841;28;20484;-74
2022/04/27 06:22:59;;;;;;;0.00;0.00;;;;;;;;;;5061748;28;20029;-73
2022/04/27 06:25:25;;;;;;;2.63;2.35;;;;;;;;;;5058024;28;20031;-75
2022/04/27 06:27:52;;;;;;;1.00;0.90;;;;;;;;;;5059014;28;20446;-75
2022/04/27 06:30:19;;;;;;;2.75;0.65;;;;;;;;;;5066910;28;20017;-74
2022/04/27 06:32:45;;;;;;;0.45;0.45;;;;;;;;;;5061027;28;20028;-74
2022/04/27 06:35:13;;;;;;;0.65;0.40;;;;;;;;;;5067018;28;20052;-72
2022/04/27 06:37:40;;;;;;;0.75;0.20;;;;;;;;;;5058791;28;20025;-72
2022/04/27 06:40:07;;;;;;;0.47;0.32;;;;;;;;;;5067318;28;20438;-73
2022/04/27 06:42:33;;;;;;;0.00;0.00;;;;;;;;;;5066533;28;20020;-74
2022/04/27 06:45:08;;;;;;;0.00;0.00;;;;;;;;;;5069979;28;20491;-73
2022/04/27 06:47:34;;;;;;;5.68;0.85;;;;;;;;;;5069666;28;20435;-74
2022/04/27 06:50:01;;;;;;;0.20;0.15;;;;;;;;;;5071680;28;20017;-75
2022/04/27 06:52:27;;;;;;;4.68;2.10;;;;;;;;;;5078768;28;20202;-75
2022/04/27 06:54:53;;;;;;;0.15;0.03;;;;;;;;;;5068384;28;20032;-74
2022/04/27 06:57:20;;;;;;;1.42;1.20;;;;;;;;;;5068388;28;20027;-74
2022/04/27 06:59:46;;;;;;;0.00;0.00;;;;;;;;;;5065632;28;20020;-74
2022/04/27 07:02:14;;;;;;;0.00;0.00;;;;;;;;;;5064576;28;20030;-75
2022/04/27 07:04:43;;;;;;;0.10;0.10;;;;;;;;;;5062374;28;20060;-73
2022/04/27 07:07:13;;;;;;;0.00;0.00;;;;;;;;;;5064431;28;20028;-73
2022/04/27 07:09:40;;;;;;;5.40;1.75;;;;;;;;;;5063501;28;20029;-74
2022/04/27 07:12:07;;;;;;;4.53;3.30;;;;;;;;;;5056023;28;20358;-74
2022/04/27 07:14:33;;;;;;;0.10;0.08;;;;;;;;;;5055348;28;20397;-75
2022/04/27 07:17:00;;;;;;;0.85;0.85;;;;;;;;;;5052806;28;20028;-74
2022/04/27 07:19:26;;;;;;;1.30;1.20;;;;;;;;;;5050507;28;20029;-74
2022/04/27 07:21:52;;;;;;;4.20;3.80;;;;;;;;;;5049129;28;20116;-77
2022/04/27 07:24:20;;;;;;;2.63;1.73;;;;;;;;;;5052224;28;20077;-76
2022/04/27 07:26:47;;;;;;;1.83;0.77;;;;;;;;;;5062255;28;20051;-76
2022/04/27 07:29:14;;;;;;;4.97;0.75;;;;;;;;;;5060914;28;20020;-75
2022/04/27 07:31:40;;;;;;;0.38;0.38;;;;;;;;;;5062398;28;20448;-74
2022/04/27 07:34:07;;;;;;;3.20;1.67;;;;;;;;;;5061014;28;20526;-75
2022/04/27 07:36:33;;;;;;;2.85;2.13;;;;;;;;;;5046422;28;20028;-75
2022/04/27 07:38:59;;;;;;;7.20;2.75;;;;;;;;;;5066407;28;20360;-75
2022/04/27 07:41:29;;;;;;;5.22;1.67;;;;;;;;;;5067060;28;20029;-75
2022/04/27 07:43:55;;;;;;;1.85;1.08;;;;;;;;;;5064870;28;20024;-75
2022/04/27 07:46:22;;;;;;;1.63;1.48;;;;;;;;;;5056871;28;20024;-74
2022/04/27 07:48:48;;;;;;;0.00;0.00;;;;;;;;;;5070937;28;20032;-76
2022/04/27 07:51:14;;;;;;;3.42;1.35;;;;;;;;;;5062915;28;20488;-75
2022/04/27 07:53:41;;;;;;;2.78;2.03;;;;;;;;;;5057852;28;20032;-73
2022/04/27 07:56:07;;;;;;;0.00;0.00;;;;;;;;;;5054311;28;20067;-75
2022/04/27 07:58:34;;;;;;;4.18;0.80;;;;;;;;;;5066801;28;20040;-75
2022/04/27 08:01:01;;;;;;;4.30;2.20;;;;;;;;;;5070984;28;20024;-73
2022/04/27 08:03:30;;;;;;;2.35;1.42;;;;;;;;;;5072076;28;20036;-73
2022/04/27 08:05:57;;;;;;;13.82;2.03;;;;;;;;;;5069603;28;20047;-74
2022/04/27 08:08:23;;;;;;;10.40;3.20;;;;;;;;;;5066011;28;20472;-71
2022/04/27 08:10:50;;;;;;;5.95;2.47;;;;;;;;;;5067278;28;20032;-74
2022/04/27 08:13:16;;;;;;;1.83;1.45;;;;;;;;;;5067348;28;20029;-74
2022/04/27 08:15:43;;;;;;;3.00;1.90;;;;;;;;;;5063846;28;20025;-74
2022/04/27 08:18:20;;;;;;;8.23;2.58;;;;;;;;;;5067708;28;20032;-73
2022/04/27 08:23:34;;;;;;;1.23;0.90;;;;;;;;;;5064307;28;20050;-75
2022/04/27 08:26:04;;;;;;;4.63;1.52;;;;;;;;;;5059884;28;20035;-75
2022/04/27 08:28:31;;;;;;;32.13;3.10;;;;;;;;;;5056143;28;20074;-76
2022/04/27 08:30:59;;;;;;;2.50;1.17;;;;;;;;;;5067264;28;20042;-75
2022/04/27 08:33:36;;;;;;;5.22;1.77;;;;;;;;;;5063027;28;20025;-75
2022/04/27 08:36:06;;;;;;;1.65;0.77;;;;;;;;;;5068091;28;20024;-75
2022/04/27 08:38:37;;;;;;;0.10;0.10;;;;;;;;;;5063045;28;20031;-75
2022/04/27 08:41:03;;;;;;;1.23;1.13;;;;;;;;;;5063412;28;20055;-75
2022/04/27 08:43:33;;;;;;;0.00;0.00;;;;;;;;;;5054618;28;20033;-74
2022/04/27 08:46:02;;;;;;;0.00;0.00;;;;;;;;;;5057873;28;20035;-76
2022/04/27 08:48:28;;;;;;;0.45;0.45;;;;;;;;;;5058313;28;20128;-74
2022/04/27 08:50:55;;;;;;;0.73;0.70;;;;;;;;;;5050307;28;20028;-73
2022/04/27 08:53:22;;;;;;;2.30;1.75;;;;;;;;;;5058936;28;20432;-74
2022/04/27 08:55:49;;;;;;;26.80;4.13;;;;;;;;;;5056952;28;20028;-73
2022/04/27 08:58:16;;;;;;;0.60;0.60;;;;;;;;;;5057437;28;20033;-75
2022/04/27 09:00:43;;;;;;;0.70;0.70;;;;;;;;;;5051393;28;20091;-75
2022/04/27 09:03:23;;;;;;;6.00;3.53;;;;;;;;;;5042967;28;20029;-74
2022/04/27 09:05:56;;;;;;;2.58;1.35;;;;;;;;;;5049764;28;20048;-75
2022/04/27 09:08:24;;;;;;;0.00;0.00;;;;;;;;;;5043318;28;20100;-75
2022/04/27 09:10:51;;;;;;;1.38;0.88;;;;;;;;;;5043792;28;20400;-75
2022/04/27 09:13:17;;;;;;;0.00;0.00;;;;;;;;;;5061645;28;20162;-75
2022/04/27 09:15:44;;;;;;;0.43;0.43;;;;;;;;;;5071941;28;20052;-75
2022/04/27 09:21:02;;;;;;;0.28;0.28;;;;;;;;;;5072654;28;20082;-75
2022/04/27 09:23:49;;;;;;;;;;;;;;;;;;;;;
2022/04/27 09:26:19;;;;;;;0.00;0.00;;;;;;;;;;5068464;28;20033;-75
2022/04/27 09:28:49;;;;;;;7.78;5.32;;;;;;;;;;5062602;28;20043;-75
2022/04/27 09:31:37;;;;;;;6.32;2.30;;;;;;;;;;5064577;28;20017;-75
2022/04/27 09:34:27;;;;;;;5.20;1.48;;;;;;;;;;5057285;28;20027;-75
2022/04/27 09:36:56;;;;;;;1.15;1.08;;;;;;;;;;5065080;28;20025;-74
2022/04/27 09:39:25;;;;;;;0.00;0.00;;;;;;;;;;5071754;28;20024;-74
2022/04/27 09:41:52;;;;;;;0.00;0.00;;;;;;;;;;5066226;28;20025;-75
2022/04/27 09:44:28;;;;;;;0.70;0.38;;;;;;;;;;5064218;28;20472;-75
2022/04/27 09:46:55;;;;;;;2.47;1.38;;;;;;;;;;5074291;28;20050;-76
2022/04/27 09:49:21;;;;;;;4.15;2.58;;;;;;;;;;5078833;28;20044;-74
2022/04/27 09:51:54;;;;;;;0.05;0.05;;;;;;;;;;5078961;28;20045;-75
2022/04/27 09:54:21;;;;;;;0.45;0.45;;;;;;;;;;5067565;28;20056;-75
2022/04/27 09:56:58;;;;;;;4.63;2.92;;;;;;;;;;5068945;28;20485;-74
2022/04/27 09:59:29;;;;;;;3.53;2.65;;;;;;;;;;5063216;28;20032;-76
2022/04/27 10:01:57;;;;;;;0.40;0.40;;;;;;;;;;5062342;28;20071;-73
2022/04/27 10:04:26;;;;;;;0.63;0.63;;;;;;;;;;5060823;28;20085;-75
2022/04/27 10:06:53;;;;;;;0.00;0.00;;;;;;;;;;5061567;28;20032;-75
2022/04/27 10:09:19;;;;;;;1.65;0.98;;;;;;;;;;5067122;28;20096;-76
2022/04/27 10:11:46;;;;;;;1.60;0.60;;;;;;;;;;5069304;28;20023;-79
2022/04/27 10:14:12;;;;;;;0.20;0.03;;;;;;;;;;5069936;28;20040;-79
2022/04/27 10:16:39;;;;;;;7.00;3.50;;;;;;;;;;5064517;28;20028;-79
2022/04/27 10:19:09;;;;;;;8.32;5.95;;;;;;;;;;5068364;28;20024;-79
2022/04/27 10:21:58;;;;;;;0.68;0.52;;;;;;;;;;5068539;28;20024;-78
2022/04/27 10:24:41;;;;;;;0.55;0.55;;;;;;;;;;5069659;28;20028;-79
2022/04/27 10:27:18;;;;;;;1.05;1.05;;;;;;;;;;5068070;28;20016;-78
2022/04/27 10:30:05;;;;;;;0.00;0.00;;;;;;;;;;5069672;28;20116;-78
2022/04/27 10:32:38;;;;;;;0.00;0.00;;;;;;;;;;5066458;28;20469;-78
2022/04/27 10:35:19;;;;;;;0.00;0.00;;;;;;;;;;5063455;28;20020;-78
2022/04/27 10:37:59;;;;;;;0.65;0.65;;;;;;;;;;5062964;28;20031;-79
2022/04/27 10:40:25;;;;;;;0.00;0.00;;;;;;;;;;5066044;28;20028;-78
2022/04/27 10:42:51;;;;;;;0.00;0.00;;;;;;;;;;5061835;28;20028;-78
2022/04/27 10:45:24;;;;;;;0.00;0.00;;;;;;;;;;5063126;28;20028;-78
2022/04/27 10:47:50;;;;;;;0.10;0.00;;;;;;;;;;5063783;28;20062;-78
2022/04/27 10:50:21;;;;;;;0.00;0.00;;;;;;;;;;5063409;28;20047;-79
2022/04/27 10:52:52;;;;;;;1.60;0.63;;;;;;;;;;5062609;28;20044;-79
2022/04/27 10:55:42;;;;;;;0.00;0.00;;;;;;;;;;5059041;28;20036;-81
2022/04/27 10:58:12;;;;;;;0.00;0.00;;;;;;;;;;5058355;28;20397;-79
2022/04/27 11:00:57;;;;;;;0.10;0.00;;;;;;;;;;5058838;28;20035;-79
2022/04/27 11:03:25;;;;;;;0.05;0.05;;;;;;;;;;5061392;28;20017;-79
2022/04/27 11:05:52;;;;;;;4.38;1.48;;;;;;;;;;5063056;28;20390;-77
2022/04/27 11:08:28;;;;;;;9.20;3.25;;;;;;;;;;5056321;28;20101;-77
2022/04/27 11:11:08;;;;;;;0.40;0.30;;;;;;;;;;5064519;28;21809;-74
2022/04/27 11:13:38;;;;;;;0.30;0.30;;;;;;;;;;5068306;28;20107;-70
2022/04/27 11:16:11;;;;;;;3.85;1.75;;;;;;;;;;5065113;28;20028;-71
2022/04/27 11:18:50;;;;;;;7.82;1.77;;;;;;;;;;5066073;28;20530;-71
2022/04/27 11:21:35;;;;;;;4.40;3.72;;;;;;;;;;5062124;28;20039;-72
2022/04/27 11:24:06;;;;;;;2.08;0.63;;;;;;;;;;5066812;28;20110;-73
2022/04/27 11:26:41;;;;;;;0.28;0.10;;;;;;;;;;5066139;28;20494;-73
2022/04/27 11:29:08;;;;;;;4.57;0.95;;;;;;;;;;5069123;28;20021;-73
2022/04/27 11:31:34;;;;;;;0.00;0.00;;;;;;;;;;5069184;28;20017;-75
2022/04/27 11:34:01;;;;;;;0.15;0.15;;;;;;;;;;5066947;28;20039;-75
2022/04/27 11:36:28;;;;;;;0.60;0.50;;;;;;;;;;5068942;28;20029;-74
2022/04/27 11:38:55;;;;;;;4.85;2.80;;;;;;;;;;5058164;28;20108;-76
2022/04/27 11:41:25;;;;;;;0.80;0.65;;;;;;;;;;5064421;28;20017;-76
2022/04/27 11:43:56;;;;;;;0.13;0.13;;;;;;;;;;5061486;28;20464;-77
2022/04/27 11:46:22;;;;;;;0.00;0.00;;;;;;;;;;5068067;28;20021;-76
2022/04/27 11:48:49;;;;;;;0.00;0.00;;;;;;;;;;5060761;28;20170;-78
2022/04/27 11:51:15;;;;;;;0.95;0.88;;;;;;;;;;5063812;28;20020;-76
2022/04/27 11:53:51;;;;;;;1.48;0.43;;;;;;;;;;5063342;28;20034;-78
2022/04/27 11:56:19;;;;;;;0.55;0.28;;;;;;;;;;5063527;28;20043;-77
2022/04/27 11:58:46;;;;;;;8.07;0.47;;;;;;;;;;5065859;28;20028;-75
2022/04/27 12:01:19;;;;;;;0.00;0.00;;;;;;;;;;5058939;28;20029;-76
2022/04/27 12:03:46;;;;;;;0.30;0.30;;;;;;;;;;5061463;28;20357;-77
2022/04/27 12:06:22;;;;;;;1.92;0.68;;;;;;;;;;5064274;28;20020;-78
2022/04/27 12:08:48;;;;;;;6.78;6.38;;;;;;;;;;5063984;28;20031;-79
2022/04/27 12:11:22;;;;;;;0.15;0.10;;;;;;;;;;5062650;28;20039;-79
2022/04/27 12:13:49;;;;;;;0.22;0.22;;;;;;;;;;5066550;28;20036;-82
2022/04/27 12:16:15;;;;;;;10.25;0.50;;;;;;;;;;5066093;28;20032;-80
2022/04/27 12:18:54;;;;;;;1.00;0.45;;;;;;;;;;5067174;28;20095;-82
2022/04/27 12:21:24;;;;;;;0.00;0.00;;;;;;;;;;5067089;28;20039;-81
2022/04/27 12:23:56;;;;;;;0.05;0.05;;;;;;;;;;5067084;28;20078;-81
2022/04/27 12:26:23;;;;;;;0.10;0.00;;;;;;;;;;5070209;28;20036;-81
2022/04/27 12:28:49;;;;;;;0.00;0.00;;;;;;;;;;5066867;28;20024;-82
2022/04/27 12:31:17;;;;;;;1.30;0.50;;;;;;;;;;5068357;28;20029;-81
2022/04/27 12:33:45;;;;;;;0.32;0.20;;;;;;;;;;5065845;28;20473;-80
2022/04/27 12:39:07;;;;;;;0.65;0.65;;;;;;;;;;5069485;28;20023;-80
2022/04/27 12:41:35;;;;;;;0.57;0.57;;;;;;;;;;5069680;28;20135;-80
2022/04/27 12:44:05;;;;;;;0.00;0.00;;;;;;;;;;5068946;28;20028;-79
2022/04/27 12:46:34;;;;;;;0.00;0.00;;;;;;;;;;5070254;28;20033;-79
2022/04/27 12:49:02;;;;;;;0.00;0.00;;;;;;;;;;5067264;28;20025;-79
2022/04/27 12:51:38;;;;;;;0.20;0.20;;;;;;;;;;5070535;28;20056;-79
2022/04/27 12:54:05;;;;;;;0.38;0.10;;;;;;;;;;5067866;28;20024;-80
2022/04/27 12:56:40;;;;;;;2.88;2.65;;;;;;;;;;5067865;28;20029;-80
2022/04/27 12:59:06;;;;;;;0.00;0.00;;;;;;;;;;5066692;28;20121;-78
2022/04/27 13:01:33;;;;;;;0.00;0.00;;;;;;;;;;5068193;28;20183;-79
2022/04/27 13:03:59;;;;;;;0.08;0.03;;;;;;;;;;5074638;28;20028;-78
2022/04/27 13:06:26;;;;;;;0.00;0.00;;;;;;;;;;5075639;28;20150;-79
2022/04/27 13:08:53;;;;;;;0.00;0.00;;;;;;;;;;5074997;28;20516;-78
2022/04/27 13:14:04;;;;;;;0.80;0.80;;;;;;;;;;5070384;28;20067;-78
2022/04/27 13:16:31;;;;;;;0.00;0.00;;;;;;;;;;5064547;28;20036;-79
2022/04/27 13:18:58;;;;;;;0.00;0.00;;;;;;;;;;5062913;28;20031;-78
2022/04/27 13:21:24;;;;;;;0.00;0.00;;;;;;;;;;5056144;28;20475;-78
2022/04/27 13:23:50;;;;;;;0.00;0.00;;;;;;;;;;5060461;28;20460;-78
2022/04/27 13:26:17;;;;;;;0.15;0.15;;;;;;;;;;5066878;28;20119;-77
2022/04/27 13:28:43;;;;;;;0.10;0.10;;;;;;;;;;5072239;28;20021;-78
2022/04/27 13:31:09;;;;;;;0.00;0.00;;;;;;;;;;5060936;28;20017;-78
2022/04/27 13:33:36;;;;;;;0.00;0.00;;;;;;;;;;5057980;28;20033;-78
2022/04/27 13:36:02;;;;;;;0.00;0.00;;;;;;;;;;5068972;28;20037;-78
2022/04/27 13:38:29;;;;;;;0.00;0.00;;;;;;;;;;5065279;28;20056;-78
2022/04/27 13:40:57;;;;;;;0.00;0.00;;;;;;;;;;5053210;28;20519;-78
2022/04/27 13:43:24;;;;;;;0.00;0.00;;;;;;;;;;5067001;28;20021;-78
2022/04/27 13:45:50;;;;;;;0.00;0.00;;;;;;;;;;5068765;28;20079;-79
2022/04/27 13:48:16;;;;;;;0.00;0.00;;;;;;;;;;5054827;28;20377;-79
2022/04/27 13:50:43;;;;;;;0.80;0.80;;;;;;;;;;5055609;28;20156;-79
2022/04/27 13:53:09;;;;;;;1.00;0.10;;;;;;;;;;5063405;28;20404;-79
2022/04/27 13:55:35;;;;;;;0.00;0.00;;;;;;;;;;5063042;28;20025;-76
2022/04/27 13:58:02;;;;;;;3.38;0.50;;;;;;;;;;5059163;28;20104;-78
2022/04/27 14:00:29;;;;;;;5.90;5.38;;;;;;;;;;5069720;28;20063;-76
2022/04/27 14:02:55;;;;;;;8.75;0.70;;;;;;;;;;5068870;28;20033;-76
2022/04/27 14:05:21;;;;;;;3.70;2.15;;;;;;;;;;5071992;28;20028;-76
2022/04/27 14:07:48;;;;;;;5.07;2.95;;;;;;;;;;5071140;28;20024;-77
2022/04/27 14:10:15;;;;;;;1.80;1.67;;;;;;;;;;5073069;28;20017;-76
2022/04/27 14:15:28;;;;;;;7.22;2.97;;;;;;;;;;5072971;28;20093;-76
2022/04/27 14:18:10;;;;;;;2.13;1.20;;;;;;;;;;5072151;28;20028;-76
2022/04/27 14:20:37;;;;;;;15.90;1.95;;;;;;;;;;5073763;28;20369;-76
2022/04/27 14:23:03;;;;;;;5.68;3.30;;;;;;;;;;5074130;28;20081;-76
2022/04/27 14:25:29;;;;;;;0.10;0.03;;;;;;;;;;5072927;28;20495;-77
2022/04/27 14:27:56;;;;;;;2.40;1.35;;;;;;;;;;5073658;28;20032;-76
2022/04/27 14:30:22;;;;;;;2.38;2.17;;;;;;;;;;5075335;28;20100;-76
2022/04/27 14:32:49;;;;;;;5.68;2.83;;;;;;;;;;5070631;28;20036;-76
2022/04/27 14:35:16;;;;;;;9.00;1.80;;;;;;;;;;5061667;28;20028;-77
2022/04/27 14:37:42;;;;;;;7.70;3.33;;;;;;;;;;5059349;28;20039;-76
2022/04/27 14:40:09;;;;;;;6.07;5.22;;;;;;;;;;5069991;28;20067;-76
2022/04/27 14:42:36;;;;;;;5.40;1.17;;;;;;;;;;5072371;28;20028;-76
2022/04/27 14:45:03;;;;;;;1.88;0.75;;;;;;;;;;5073587;28;20020;-76
2022/04/27 14:47:30;;;;;;;11.45;1.35;;;;;;;;;;5071416;28;20435;-76
2022/04/27 14:49:58;;;;;;;15.98;2.75;;;;;;;;;;5057236;28;20028;-75
2022/04/27 14:52:24;;;;;;;9.65;3.60;;;;;;;;;;5071780;28;20079;-76
2022/04/27 14:54:51;;;;;;;4.75;2.92;;;;;;;;;;5071463;28;20066;-76
2022/04/27 14:57:17;;;;;;;9.50;3.92;;;;;;;;;;5073375;28;20028;-76
2022/04/27 14:59:43;;;;;;;13.27;8.88;;;;;;;;;;5073343;28;20036;-76
2022/04/27 15:02:10;;;;;;;12.73;8.15;;;;;;;;;;5072722;28;20078;-75
2022/04/27 15:04:37;;;;;;;7.55;4.72;;;;;;;;;;5072538;28;20048;-75
2022/04/27 15:07:03;;;;;;;2.97;2.22;;;;;;;;;;5072108;28;20060;-75
2022/04/27 15:09:30;;;;;;;1.15;1.05;;;;;;;;;;5071977;28;20388;-75
2022/04/27 15:11:56;;;;;;;9.38;5.32;;;;;;;;;;5073165;28;20027;-74
2022/04/27 15:14:23;;;;;;;6.88;2.97;;;;;;;;;;5067767;28;20021;-74
2022/04/27 15:16:50;;;;;;;6.13;2.83;;;;;;;;;;5053666;28;20025;-75
2022/04/27 15:19:16;;;;;;;2.08;1.17;;;;;;;;;;5067102;28;20024;-74